OMD189 KBOS-KGYR
Flight info
| Callsign | OMD189 |
|---|---|
| Flight time | N/A |
| Altitude | 38000 |
| Route | HYLND7 HYLND HANAA Q816 HOCKE Q935 MONEE BAE J16 MCW OBH MCK HGO PUB J64 RSK J44 INW DSERT2 |
| Aircraft | A321/M-SDE3FGHIRWY/LB1 |
Departure
| Time | 2026-05-05 23:56 |
|---|---|
| Airport | Boston Logan International Airport (KBOS) |
Arrival
| Time | N/A |
|---|---|
| Airport | Phoenix Goodyear Airport (KGYR) |
| Time | Latitude | Longitude | Altitude | Speed | Heading |
|---|---|---|---|---|---|
| 2026-05-05 23:28 | 42.37275 | -71.02257 | 29 ft | 0 kts | 131° |
| 2026-05-05 23:42 | 42.37278 | -71.02261 | 26 ft | 2 kts | 131° |
| 2026-05-05 23:43 | 42.37290 | -71.02280 | 30 ft | 3 kts | 131° |
| 2026-05-05 23:43 | 42.37301 | -71.02297 | 26 ft | 1 kts | 131° |
| 2026-05-05 23:43 | 42.37312 | -71.02315 | 28 ft | 3 kts | 113° |
| 2026-05-05 23:43 | 42.37316 | -71.02338 | 30 ft | 3 kts | 78° |
| 2026-05-05 23:44 | 42.37314 | -71.02350 | 30 ft | 3 kts | 60° |
| 2026-05-05 23:44 | 42.37304 | -71.02368 | 31 ft | 3 kts | 41° |
| 2026-05-05 23:44 | 42.37289 | -71.02385 | 30 ft | 3 kts | 31° |
| 2026-05-05 23:44 | 42.37271 | -71.02398 | 30 ft | 3 kts | 27° |
| 2026-05-05 23:45 | 42.37253 | -71.02411 | 29 ft | 3 kts | 28° |
| 2026-05-05 23:45 | 42.37236 | -71.02424 | 29 ft | 3 kts | 40° |
| 2026-05-05 23:45 | 42.37225 | -71.02439 | 31 ft | 3 kts | 85° |
| 2026-05-05 23:45 | 42.37227 | -71.02451 | 31 ft | 3 kts | 132° |
| 2026-05-05 23:46 | 42.37240 | -71.02472 | 31 ft | 3 kts | 132° |
| 2026-05-05 23:46 | 42.37252 | -71.02489 | 28 ft | 1 kts | 132° |
| 2026-05-05 23:46 | 42.37253 | -71.02491 | 28 ft | 0 kts | 132° |
| 2026-05-05 23:48 | 42.37250 | -71.02486 | 29 ft | 2 kts | 132° |
| 2026-05-05 23:49 | 42.37225 | -71.02449 | 31 ft | 12 kts | 133° |
| 2026-05-05 23:49 | 42.37157 | -71.02353 | 30 ft | 15 kts | 127° |
| 2026-05-05 23:49 | 42.37171 | -71.02222 | 27 ft | 16 kts | 46° |
| 2026-05-05 23:49 | 42.37236 | -71.02100 | 27 ft | 17 kts | 79° |
| 2026-05-05 23:50 | 42.37242 | -71.01956 | 26 ft | 14 kts | 67° |
| 2026-05-05 23:50 | 42.37291 | -71.01849 | 28 ft | 14 kts | 90° |
| 2026-05-05 23:50 | 42.37234 | -71.01742 | 26 ft | 15 kts | 135° |
| 2026-05-05 23:50 | 42.37156 | -71.01638 | 26 ft | 17 kts | 135° |
| 2026-05-05 23:51 | 42.37069 | -71.01521 | 30 ft | 18 kts | 135° |
| 2026-05-05 23:51 | 42.36975 | -71.01396 | 27 ft | 19 kts | 134° |
| 2026-05-05 23:51 | 42.36906 | -71.01298 | 27 ft | 14 kts | 133° |
| 2026-05-05 23:51 | 42.36918 | -71.01186 | 30 ft | 14 kts | 42° |
| 2026-05-05 23:52 | 42.37005 | -71.01100 | 27 ft | 17 kts | 28° |
| 2026-05-05 23:52 | 42.37115 | -71.01027 | 29 ft | 19 kts | 26° |
| 2026-05-05 23:52 | 42.37205 | -71.00968 | 27 ft | 7 kts | 26° |
| 2026-05-05 23:52 | 42.37237 | -71.00947 | 30 ft | 0 kts | 26° |
| 2026-05-05 23:53 | 42.37241 | -71.00945 | 30 ft | 4 kts | 26° |
| 2026-05-05 23:54 | 42.37321 | -71.00898 | 27 ft | 18 kts | 19° |
| 2026-05-05 23:54 | 42.37441 | -71.00839 | 28 ft | 19 kts | 20° |
| 2026-05-05 23:54 | 42.37573 | -71.00774 | 28 ft | 18 kts | 20° |
| 2026-05-05 23:54 | 42.37696 | -71.00715 | 28 ft | 18 kts | 19° |
| 2026-05-05 23:55 | 42.37804 | -71.00662 | 27 ft | 13 kts | 26° |
| 2026-05-05 23:55 | 42.37834 | -71.00610 | 30 ft | 5 kts | 78° |
| 2026-05-05 23:55 | 42.37823 | -71.00536 | 26 ft | 12 kts | 109° |
| 2026-05-05 23:55 | 42.37749 | -71.00495 | 27 ft | 12 kts | 195° |
| 2026-05-05 23:56 | 42.37627 | -71.00553 | 28 ft | 43 kts | 200° |
| 2026-05-05 23:56 | 42.37088 | -71.00814 | 29 ft | 118 kts | 199° |
| 2026-05-05 23:56 | 42.36198 | -71.01241 | 363 ft | 145 kts | 199° |
| 2026-05-05 23:56 | 42.35195 | -71.01669 | 970 ft | 157 kts | 194° |
| 2026-05-05 23:57 | 42.34075 | -71.01430 | 1600 ft | 180 kts | 167° |
| 2026-05-05 23:57 | 42.33080 | -71.00117 | 2032 ft | 219 kts | 137° |
| 2026-05-05 23:57 | 42.32208 | -70.98381 | 2553 ft | 233 kts | 136° |
| 2026-05-05 23:57 | 42.31519 | -70.96302 | 3385 ft | 251 kts | 112° |
| 2026-05-05 23:58 | 42.31402 | -70.93797 | 3949 ft | 285 kts | 85° |
| 2026-05-05 23:58 | 42.31788 | -70.91058 | 4476 ft | 305 kts | 81° |
| 2026-05-05 23:58 | 42.32227 | -70.88227 | 5324 ft | 310 kts | 80° |
| 2026-05-05 23:58 | 42.32675 | -70.85389 | 6256 ft | 314 kts | 80° |
| 2026-05-05 23:59 | 42.33130 | -70.82478 | 7130 ft | 317 kts | 79° |
| 2026-05-05 23:59 | 42.33772 | -70.79606 | 8047 ft | 321 kts | 65° |
| 2026-05-05 23:59 | 42.34945 | -70.77037 | 8963 ft | 322 kts | 48° |
| 2026-05-05 23:59 | 42.36570 | -70.74979 | 9879 ft | 320 kts | 31° |
| 2026-05-06 00:00 | 42.38530 | -70.73561 | 10614 ft | 323 kts | 16° |
| 2026-05-06 00:00 | 42.40717 | -70.72603 | 10893 ft | 345 kts | 12° |
| 2026-05-06 00:00 | 42.43170 | -70.71992 | 11109 ft | 363 kts | 358° |
| 2026-05-06 00:00 | 42.45705 | -70.72215 | 11368 ft | 375 kts | 343° |
| 2026-05-06 00:01 | 42.48199 | -70.73296 | 11996 ft | 376 kts | 330° |
| 2026-05-06 00:01 | 42.50567 | -70.74850 | 12764 ft | 378 kts | 327° |
| 2026-05-06 00:01 | 42.52740 | -70.76780 | 13525 ft | 377 kts | 316° |
| 2026-05-06 00:01 | 42.54600 | -70.79272 | 14219 ft | 375 kts | 305° |
| 2026-05-06 00:02 | 42.56094 | -70.82165 | 14922 ft | 376 kts | 299° |
| 2026-05-06 00:02 | 42.57539 | -70.85147 | 15636 ft | 380 kts | 299° |
| 2026-05-06 00:02 | 42.59009 | -70.88173 | 16351 ft | 385 kts | 299° |
| 2026-05-06 00:02 | 42.60477 | -70.91187 | 17053 ft | 389 kts | 299° |
| 2026-05-06 00:03 | 42.61983 | -70.94282 | 17775 ft | 393 kts | 299° |
| 2026-05-06 00:03 | 42.63498 | -70.97394 | 18422 ft | 398 kts | 299° |
| 2026-05-06 00:03 | 42.65036 | -71.00552 | 19042 ft | 401 kts | 300° |
| 2026-05-06 00:03 | 42.66583 | -71.03731 | 19654 ft | 403 kts | 300° |
| 2026-05-06 00:04 | 42.68111 | -71.06881 | 20286 ft | 406 kts | 300° |
| 2026-05-06 00:04 | 42.69671 | -71.10104 | 20920 ft | 408 kts | 300° |
| 2026-05-06 00:04 | 42.71235 | -71.13336 | 21527 ft | 410 kts | 300° |
| 2026-05-06 00:04 | 42.72813 | -71.16599 | 22151 ft | 412 kts | 300° |
| 2026-05-06 00:05 | 42.75990 | -71.23169 | 23348 ft | 417 kts | 300° |
| 2026-05-06 00:05 | 42.77500 | -71.26544 | 23818 ft | 418 kts | 294° |
| 2026-05-06 00:05 | 42.78584 | -71.30162 | 24261 ft | 418 kts | 285° |
| 2026-05-06 00:06 | 42.79318 | -71.34004 | 24698 ft | 420 kts | 282° |
| 2026-05-06 00:06 | 42.80035 | -71.37882 | 25139 ft | 423 kts | 282° |
| 2026-05-06 00:06 | 42.80756 | -71.41735 | 25583 ft | 426 kts | 283° |
| 2026-05-06 00:06 | 42.81496 | -71.45651 | 26022 ft | 429 kts | 283° |
| 2026-05-06 00:07 | 42.82248 | -71.49621 | 26465 ft | 432 kts | 283° |
| 2026-05-06 00:07 | 42.83000 | -71.53608 | 26912 ft | 435 kts | 283° |
| 2026-05-06 00:07 | 42.83745 | -71.57567 | 27347 ft | 437 kts | 283° |
| 2026-05-06 00:07 | 42.84502 | -71.61607 | 27773 ft | 440 kts | 283° |
| 2026-05-06 00:08 | 42.85257 | -71.65649 | 28306 ft | 439 kts | 283° |
| 2026-05-06 00:08 | 42.86008 | -71.69684 | 28914 ft | 437 kts | 283° |
| 2026-05-06 00:08 | 42.86751 | -71.73687 | 29500 ft | 436 kts | 283° |
| 2026-05-06 00:08 | 42.87485 | -71.77646 | 30092 ft | 434 kts | 283° |
| 2026-05-06 00:09 | 42.88220 | -71.81625 | 30639 ft | 431 kts | 283° |
| 2026-05-06 00:09 | 42.88948 | -71.85585 | 31249 ft | 426 kts | 283° |
| 2026-05-06 00:09 | 42.89662 | -71.89478 | 31881 ft | 422 kts | 283° |
| 2026-05-06 00:09 | 42.90370 | -71.93339 | 32529 ft | 416 kts | 283° |
| 2026-05-06 00:10 | 42.91068 | -71.97154 | 33174 ft | 411 kts | 283° |
| 2026-05-06 00:10 | 42.91748 | -72.00887 | 33819 ft | 406 kts | 283° |
| 2026-05-06 00:10 | 42.92426 | -72.04608 | 34346 ft | 402 kts | 283° |
| 2026-05-06 00:10 | 42.93102 | -72.08313 | 34776 ft | 401 kts | 283° |
| 2026-05-06 00:11 | 42.93774 | -72.12001 | 35162 ft | 401 kts | 283° |
| 2026-05-06 00:11 | 42.94439 | -72.15659 | 35525 ft | 401 kts | 283° |
| 2026-05-06 00:11 | 42.95106 | -72.19347 | 35876 ft | 401 kts | 283° |
| 2026-05-06 00:11 | 42.95773 | -72.23051 | 36241 ft | 401 kts | 282° |
| 2026-05-06 00:12 | 42.96442 | -72.26767 | 36591 ft | 401 kts | 282° |
| 2026-05-06 00:12 | 42.97109 | -72.30480 | 36931 ft | 402 kts | 282° |
| 2026-05-06 00:12 | 42.97764 | -72.34145 | 37231 ft | 402 kts | 282° |
| 2026-05-06 00:12 | 42.98429 | -72.37864 | 37527 ft | 403 kts | 282° |
| 2026-05-06 00:13 | 42.99095 | -72.41585 | 37773 ft | 404 kts | 282° |